createdAt,value
2022-11-02T00:00:43.296Z,54.79
2022-11-02T00:01:43.397Z,51.40
2022-11-02T00:02:43.343Z,46.73
2022-11-02T00:03:44.285Z,47.05
2022-11-02T00:04:43.274Z,48.98
2022-11-02T00:05:43.255Z,47.21
2022-11-02T00:06:43.251Z,46.89
2022-11-02T00:07:43.240Z,50.43
2022-11-02T00:08:43.239Z,51.72
2022-11-02T00:09:43.236Z,54.62
2022-11-02T00:10:43.882Z,50.92
2022-11-02T00:11:43.205Z,50.27
2022-11-02T00:12:43.202Z,55.75
2022-11-02T00:13:43.193Z,51.40
2022-11-02T00:14:43.178Z,53.66
2022-11-02T00:15:43.182Z,57.04
2022-11-02T00:16:43.165Z,51.40
2022-11-02T00:17:43.156Z,51.72
2022-11-02T00:18:43.143Z,50.76
2022-11-02T00:19:43.140Z,51.72
2022-11-02T00:20:43.147Z,49.47
2022-11-02T00:21:43.128Z,51.72
2022-11-02T00:22:43.114Z,53.66
2022-11-02T00:23:43.111Z,51.40
2022-11-02T00:24:43.108Z,51.56
2022-11-02T00:25:43.100Z,52.85
2022-11-02T00:26:43.081Z,46.89
2022-11-02T00:27:43.071Z,48.50
2022-11-02T00:30:32.341Z,45.76
2022-11-02T00:31:32.334Z,50.76
2022-11-02T00:32:32.324Z,47.53
2022-11-02T00:33:33.419Z,48.34
2022-11-02T00:34:34.002Z,51.24
2022-11-02T00:35:33.407Z,46.73
2022-11-02T00:36:33.393Z,47.70
2022-11-02T00:38:34.372Z,55.43
2022-11-02T00:39:33.358Z,47.53
2022-11-02T00:40:33.363Z,48.18
2022-11-02T00:41:33.346Z,49.63
2022-11-02T00:42:33.343Z,48.18
2022-11-02T00:43:33.329Z,46.57
2022-11-02T00:44:33.361Z,48.18
2022-11-02T00:45:33.334Z,47.86
2022-11-02T00:46:33.301Z,46.08
2022-11-02T00:47:33.310Z,46.89
2022-11-02T00:48:33.291Z,46.57
2022-11-02T00:49:33.283Z,46.41
2022-11-02T00:50:33.280Z,48.50
2022-11-02T00:51:33.270Z,49.31
2022-11-02T00:52:33.260Z,48.66
2022-11-02T00:53:33.247Z,45.60
2022-11-02T00:54:33.242Z,47.86
2022-11-02T00:55:33.250Z,47.86
2022-11-02T00:56:33.225Z,49.47
2022-11-02T00:57:33.213Z,46.89
2022-11-02T00:58:34.209Z,46.25
2022-11-02T00:59:33.196Z,51.24
2022-11-02T01:00:33.199Z,47.70
2022-11-02T01:01:33.249Z,49.31
2022-11-02T01:02:33.305Z,48.66
2022-11-02T01:03:33.170Z,48.98
2022-11-02T01:04:33.157Z,54.30
2022-11-02T01:05:33.157Z,45.76
2022-11-02T01:06:33.154Z,51.56
2022-11-02T01:07:33.133Z,48.82
2022-11-02T01:08:33.124Z,51.88
2022-11-02T01:09:33.130Z,46.57
2022-11-02T01:10:33.107Z,45.76
2022-11-02T01:11:33.111Z,57.04
2022-11-02T01:12:33.084Z,47.53
2022-11-02T01:13:34.082Z,52.37
2022-11-02T01:14:33.090Z,48.66
2022-11-02T01:15:33.069Z,48.34
2022-11-02T01:16:33.160Z,53.33
2022-11-02T01:17:33.059Z,51.24
2022-11-02T01:18:33.056Z,51.56
2022-11-02T01:19:33.040Z,51.24
2022-11-02T01:20:33.038Z,52.37
2022-11-02T01:21:33.021Z,49.15
2022-11-02T01:22:33.018Z,51.56
2022-11-02T01:23:33.011Z,50.43
2022-11-02T01:24:33.007Z,48.18
2022-11-02T01:25:32.993Z,48.82
2022-11-02T01:26:32.983Z,48.66
2022-11-02T01:27:32.989Z,52.37
2022-11-02T01:28:32.970Z,49.31
2022-11-02T01:29:32.958Z,49.47
2022-11-02T01:30:32.958Z,50.11
2022-11-02T01:31:32.939Z,51.56
2022-11-02T01:32:33.942Z,50.76
2022-11-02T01:33:32.932Z,50.27
2022-11-02T01:34:32.923Z,47.70
2022-11-02T01:35:32.915Z,50.92
2022-11-02T01:36:32.898Z,54.62
2022-11-02T01:37:33.625Z,54.46
2022-11-02T01:38:32.884Z,48.82
2022-11-02T01:39:32.883Z,48.66
2022-11-02T01:40:32.874Z,50.60
2022-11-02T01:41:32.870Z,48.18
2022-11-02T01:42:32.863Z,51.56
2022-11-02T01:43:32.846Z,49.15
2022-11-02T01:44:32.845Z,53.66
2022-11-02T01:45:32.844Z,51.56
2022-11-02T01:46:32.831Z,49.79
2022-11-02T01:47:32.817Z,46.89
2022-11-02T01:48:32.808Z,49.95
2022-11-02T01:49:32.811Z,51.08
2022-11-02T01:50:32.793Z,48.34
2022-11-02T01:51:32.809Z,57.36
2022-11-02T01:52:32.769Z,50.76
2022-11-02T01:53:33.779Z,50.76
2022-11-02T01:54:32.778Z,49.15
2022-11-02T01:55:32.756Z,46.73
2022-11-02T01:56:32.761Z,49.79
2022-11-02T01:57:32.739Z,50.43
2022-11-02T01:58:32.742Z,49.79
2022-11-02T01:59:32.726Z,47.53
2022-11-02T02:00:32.718Z,48.34
2022-11-02T02:01:32.825Z,48.34
2022-11-02T02:02:32.964Z,49.95
2022-11-02T02:03:32.694Z,48.50
2022-11-02T02:04:32.694Z,48.66
2022-11-02T02:05:32.676Z,51.56
2022-11-02T02:06:32.670Z,49.31
2022-11-02T02:07:32.671Z,50.11
2022-11-02T02:08:32.658Z,49.63
2022-11-02T02:09:32.655Z,51.24
2022-11-02T02:10:32.641Z,51.08
2022-11-02T02:11:32.626Z,48.98
2022-11-02T02:12:32.621Z,50.11
2022-11-02T02:13:32.617Z,53.17
2022-11-02T02:14:32.599Z,49.47
2022-11-02T02:15:32.613Z,48.98
2022-11-02T02:16:33.747Z,50.60
2022-11-02T02:17:33.587Z,50.60
2022-11-02T02:18:32.582Z,51.72
2022-11-02T02:19:32.569Z,51.72
2022-11-02T02:20:32.556Z,48.66
2022-11-02T02:21:32.555Z,50.11
2022-11-02T02:22:33.504Z,51.08
2022-11-02T02:23:32.543Z,49.47
2022-11-02T02:24:33.097Z,53.17
2022-11-02T02:25:32.528Z,51.40
2022-11-02T02:26:32.509Z,49.47
2022-11-02T02:27:32.502Z,48.66
2022-11-02T02:28:32.500Z,50.76
2022-11-02T02:29:32.506Z,49.63
2022-11-02T02:30:32.489Z,53.82
2022-11-02T02:31:32.474Z,50.60
2022-11-02T02:32:32.474Z,49.95
2022-11-02T02:33:32.458Z,51.24
2022-11-02T02:34:32.453Z,51.72
2022-11-02T02:35:33.094Z,50.27
2022-11-02T02:36:32.506Z,47.53
2022-11-02T02:37:32.448Z,50.11
2022-11-02T02:38:32.420Z,51.56
2022-11-02T02:39:32.417Z,50.92
2022-11-02T02:40:32.411Z,50.27
2022-11-02T02:41:32.408Z,48.34
2022-11-02T02:42:32.385Z,50.92
2022-11-02T02:43:32.383Z,49.15
2022-11-02T02:44:32.396Z,52.53
2022-11-02T02:45:32.391Z,49.31
2022-11-02T02:46:34.580Z,48.98
2022-11-02T02:47:33.360Z,53.17
2022-11-02T02:48:32.336Z,51.40
2022-11-02T02:49:33.333Z,49.63
2022-11-02T02:50:32.335Z,50.76
2022-11-02T02:51:32.320Z,48.18
2022-11-02T02:52:32.321Z,49.63
2022-11-02T02:53:32.314Z,51.88
2022-11-02T02:54:32.310Z,49.15
2022-11-02T02:55:32.285Z,47.70
2022-11-02T02:56:32.279Z,51.08
2022-11-02T02:57:32.289Z,51.24
2022-11-02T02:58:32.266Z,50.92
2022-11-02T02:59:32.262Z,48.66
2022-11-02T03:00:32.251Z,47.05
2022-11-02T03:01:32.378Z,51.08
2022-11-02T03:02:33.173Z,51.08
2022-11-02T03:03:32.221Z,51.88
2022-11-02T03:04:32.214Z,49.79
2022-11-02T03:05:32.218Z,49.95
2022-11-02T03:06:32.193Z,52.69
2022-11-02T03:07:33.935Z,51.56
2022-11-02T03:08:32.190Z,51.24
2022-11-02T03:09:32.173Z,54.62
2022-11-02T03:10:32.170Z,54.79
2022-11-02T03:11:32.168Z,50.43
2022-11-02T03:12:32.149Z,50.27
2022-11-02T03:13:32.148Z,52.69
2022-11-02T03:14:32.139Z,50.60
2022-11-02T03:15:32.128Z,56.07
2022-11-02T03:16:32.121Z,52.37
2022-11-02T03:17:32.113Z,49.47
2022-11-02T03:18:32.116Z,49.15
2022-11-02T03:19:32.111Z,53.82
2022-11-02T03:20:32.102Z,56.72
2022-11-02T03:21:32.092Z,57.85
2022-11-02T03:22:33.033Z,52.53
2022-11-02T03:23:32.076Z,49.79
2022-11-02T03:24:32.619Z,48.66
2022-11-02T03:25:32.056Z,50.43
2022-11-02T03:26:32.046Z,55.27
2022-11-02T03:27:32.039Z,51.40
2022-11-02T03:28:32.032Z,51.24
2022-11-02T03:29:32.027Z,52.21
2022-11-02T03:30:32.011Z,50.27
2022-11-02T03:31:32.010Z,52.37
2022-11-02T03:32:32.006Z,49.79
2022-11-02T03:33:31.989Z,52.69
2022-11-02T03:34:31.987Z,52.85
2022-11-02T03:35:31.992Z,51.56
2022-11-02T03:36:31.967Z,54.30
2022-11-02T03:37:31.960Z,50.27
2022-11-02T03:38:31.952Z,49.63
2022-11-02T03:39:31.947Z,53.50
2022-11-02T03:40:31.934Z,53.66
2022-11-02T03:41:31.934Z,56.40
2022-11-02T03:42:31.938Z,55.27
2022-11-02T03:43:31.910Z,55.27
2022-11-02T03:44:31.905Z,54.79
2022-11-02T03:45:31.900Z,58.01
2022-11-02T03:46:31.893Z,53.66
2022-11-02T03:47:31.895Z,53.50
2022-11-02T03:48:31.871Z,53.98
2022-11-02T03:49:31.865Z,54.95
2022-11-02T03:50:31.853Z,57.36
2022-11-02T03:51:31.841Z,49.15
2022-11-02T03:52:31.842Z,49.15
2022-11-02T03:53:31.829Z,53.82
2022-11-02T03:54:31.821Z,54.14
2022-11-02T03:55:31.820Z,51.24
2022-11-02T03:56:31.809Z,53.82
2022-11-02T03:57:31.807Z,56.72
2022-11-02T03:58:31.810Z,51.56
2022-11-02T03:59:32.545Z,53.66
2022-11-02T04:00:31.787Z,51.56
2022-11-02T04:01:31.828Z,55.27
2022-11-02T04:02:31.833Z,57.52
2022-11-02T04:03:31.755Z,53.01
2022-11-02T04:04:31.737Z,53.50
2022-11-02T04:05:31.740Z,59.14
2022-11-02T04:06:31.718Z,52.85
2022-11-02T04:07:31.723Z,55.11
2022-11-02T04:08:31.717Z,53.50
2022-11-02T04:09:31.702Z,51.72
2022-11-02T04:10:31.692Z,60.42
2022-11-02T04:11:31.680Z,53.66
2022-11-02T04:12:31.670Z,61.55
2022-11-02T04:13:31.666Z,58.97
2022-11-02T04:14:31.656Z,59.46
2022-11-02T04:15:31.659Z,57.52
2022-11-02T04:16:31.648Z,57.69
2022-11-02T04:18:31.626Z,54.14
2022-11-02T04:19:31.629Z,59.62
2022-11-02T04:20:31.606Z,55.27
2022-11-02T04:21:31.601Z,56.40
2022-11-02T04:22:31.592Z,56.40
2022-11-02T04:23:31.583Z,57.52
2022-11-02T04:25:04.081Z,55.43
2022-11-02T04:25:31.582Z,59.94
2022-11-02T04:26:31.563Z,56.40
2022-11-02T04:27:31.552Z,53.17
2022-11-02T04:28:31.537Z,53.82
2022-11-02T04:29:31.578Z,56.88
2022-11-02T04:30:31.535Z,59.62
2022-11-02T04:31:31.522Z,59.62
2022-11-02T04:32:31.511Z,61.07
2022-11-02T04:33:31.505Z,60.91
2022-11-02T04:34:31.499Z,61.39
2022-11-02T04:35:31.512Z,60.91
2022-11-02T04:36:31.489Z,60.59
2022-11-02T04:38:31.475Z,63.49
2022-11-02T04:39:31.465Z,57.20
2022-11-02T04:40:31.449Z,62.68
2022-11-02T04:41:31.457Z,61.07
2022-11-02T04:42:31.449Z,58.97
2022-11-02T04:43:31.448Z,60.59
2022-11-02T04:44:31.420Z,56.24
2022-11-02T04:45:31.417Z,59.94
2022-11-02T04:46:31.417Z,56.07
2022-11-02T04:47:31.393Z,55.75
2022-11-02T04:48:31.386Z,61.39
2022-11-02T04:49:31.379Z,61.87
2022-11-02T04:50:31.373Z,62.68
2022-11-02T04:51:31.376Z,64.13
2022-11-02T04:52:31.365Z,60.59
2022-11-02T04:53:31.350Z,60.10
2022-11-02T04:54:31.338Z,62.04
2022-11-02T04:55:31.343Z,64.61
2022-11-02T04:56:31.375Z,65.42
2022-11-02T04:57:31.412Z,64.45
2022-11-02T04:58:31.309Z,66.39
2022-11-02T04:59:31.298Z,62.04
2022-11-02T05:00:31.292Z,63.81
2022-11-02T05:01:31.387Z,58.97
2022-11-02T05:02:31.461Z,58.97
2022-11-02T05:03:31.270Z,61.55
2022-11-02T05:04:31.265Z,61.71
2022-11-02T05:05:31.272Z,62.04
2022-11-02T05:06:31.242Z,53.98
2022-11-02T05:07:31.240Z,59.78
2022-11-02T05:08:31.239Z,58.97
2022-11-02T05:09:32.071Z,62.20
2022-11-02T05:10:31.215Z,56.72
2022-11-02T05:11:31.218Z,59.94
2022-11-02T05:12:31.201Z,62.36
2022-11-02T05:13:31.193Z,60.75
2022-11-02T05:14:31.194Z,60.75
2022-11-02T05:15:31.169Z,57.04
2022-11-02T05:16:31.174Z,60.91
2022-11-02T05:17:31.178Z,61.23
2022-11-02T05:18:31.170Z,60.75
2022-11-02T05:19:31.155Z,64.45
2022-11-02T05:20:32.648Z,60.42
2022-11-02T05:21:31.125Z,57.36
2022-11-02T05:24:37.409Z,60.59
2022-11-02T05:25:37.398Z,59.62
2022-11-02T05:26:37.399Z,61.55
2022-11-02T05:27:38.509Z,63.00
2022-11-02T05:28:39.333Z,60.26
2022-11-02T05:29:38.468Z,59.62
2022-11-02T05:30:38.454Z,62.68
2022-11-02T05:31:38.447Z,60.26
2022-11-02T05:32:38.453Z,62.20
2022-11-02T05:33:38.446Z,61.71
2022-11-02T05:34:38.428Z,63.16
2022-11-02T05:35:38.419Z,61.23
2022-11-02T05:36:38.450Z,61.55
2022-11-02T05:37:38.417Z,63.33
2022-11-02T05:39:38.395Z,63.33
2022-11-02T05:40:39.377Z,63.81
2022-11-02T05:41:38.386Z,59.30
2022-11-02T05:42:38.381Z,62.04
2022-11-02T05:43:38.369Z,64.45
2022-11-02T05:44:38.369Z,61.23
2022-11-02T05:45:38.331Z,61.07
2022-11-02T05:46:39.332Z,59.94
2022-11-02T05:47:38.326Z,59.62
2022-11-02T05:48:38.325Z,61.39
2022-11-02T05:49:38.330Z,61.87
2022-11-02T05:50:38.292Z,63.33
2022-11-02T05:51:38.298Z,61.23
2022-11-02T05:52:38.298Z,60.26
2022-11-02T05:53:38.302Z,62.04
2022-11-02T05:54:38.831Z,62.84
2022-11-02T05:55:38.259Z,64.61
2022-11-02T05:56:38.259Z,62.20
2022-11-02T05:57:38.240Z,63.33
2022-11-02T05:58:38.283Z,60.10
2022-11-02T05:59:38.246Z,63.33
2022-11-02T06:00:38.222Z,63.16
2022-11-02T06:01:38.259Z,61.39
2022-11-02T06:02:38.215Z,61.23
2022-11-02T06:03:38.203Z,64.94
2022-11-02T06:04:38.182Z,61.39
2022-11-02T06:05:38.205Z,63.49
2022-11-02T06:06:38.162Z,66.39
2022-11-02T06:07:38.203Z,63.49
2022-11-02T06:08:38.165Z,64.78
2022-11-02T06:09:38.148Z,66.23
2022-11-02T06:10:38.146Z,64.78
2022-11-02T06:11:38.125Z,62.04
2022-11-02T06:12:38.129Z,64.13
2022-11-02T06:13:38.123Z,63.65
2022-11-02T06:14:38.103Z,64.78
2022-11-02T06:15:38.097Z,63.49
2022-11-02T06:16:38.082Z,64.29
2022-11-02T06:17:38.075Z,59.62
2022-11-02T06:18:38.074Z,64.78
2022-11-02T06:19:38.079Z,64.78
2022-11-02T06:20:38.060Z,65.26
2022-11-02T06:21:38.049Z,65.90
2022-11-02T06:22:38.052Z,63.49
2022-11-02T06:23:38.062Z,64.29
2022-11-02T06:26:50.514Z,65.90
2022-11-02T06:27:50.511Z,66.71
2022-11-02T06:28:50.498Z,64.94
2022-11-02T06:29:50.494Z,65.10
2022-11-02T06:30:51.584Z,65.42
2022-11-02T06:31:51.570Z,68.32
2022-11-02T06:32:52.082Z,66.39
2022-11-02T06:33:51.551Z,63.16
2022-11-02T06:34:51.557Z,64.13
2022-11-02T06:35:51.528Z,64.78
2022-11-02T06:36:51.518Z,63.33
2022-11-02T06:37:51.519Z,65.90
2022-11-02T06:38:51.510Z,64.78
2022-11-02T06:39:51.497Z,64.13
2022-11-02T06:40:51.491Z,63.00
2022-11-02T06:41:51.485Z,61.55
2022-11-02T06:43:10.738Z,64.94
2022-11-02T06:43:53.480Z,60.42
2022-11-02T06:44:51.463Z,62.68
2022-11-02T06:45:51.447Z,62.84
2022-11-02T06:46:51.453Z,62.20
2022-11-02T06:47:51.449Z,62.84
2022-11-02T06:48:51.429Z,63.16
2022-11-02T06:49:52.427Z,63.33
2022-11-02T06:50:51.423Z,61.55
2022-11-02T06:51:51.401Z,61.71
2022-11-02T06:52:52.155Z,63.97
2022-11-02T06:53:51.385Z,60.26
2022-11-02T06:54:51.384Z,63.00
2022-11-02T06:55:51.379Z,61.23
2022-11-02T06:56:51.366Z,62.36
2022-11-02T06:57:51.356Z,61.39
2022-11-02T06:58:51.345Z,59.94
2022-11-02T06:59:53.908Z,62.52
2022-11-02T07:00:53.209Z,63.81
2022-11-02T07:01:51.443Z,60.91
2022-11-02T07:02:51.314Z,59.46
2022-11-02T07:03:51.304Z,64.13
2022-11-02T07:04:51.298Z,60.75
2022-11-02T07:05:51.283Z,61.07
2022-11-02T07:06:51.288Z,61.55
2022-11-02T07:07:51.272Z,61.55
2022-11-02T07:08:51.264Z,59.62
2022-11-02T07:09:52.167Z,61.39
2022-11-02T07:10:51.269Z,63.97
2022-11-02T07:11:51.242Z,63.65
2022-11-02T07:12:51.235Z,64.45
2022-11-02T07:13:51.229Z,62.52
2022-11-02T07:14:51.216Z,63.33
2022-11-02T07:15:52.161Z,61.55
2022-11-02T07:16:51.207Z,64.45
2022-11-02T07:17:51.196Z,62.84
2022-11-02T07:18:51.197Z,64.78
2022-11-02T07:19:51.179Z,62.68
2022-11-02T07:20:51.172Z,65.90
2022-11-02T07:21:51.197Z,62.20
2022-11-02T07:22:52.086Z,59.30
2022-11-02T07:23:52.091Z,63.65
2022-11-02T07:24:51.216Z,62.04
2022-11-02T07:25:51.138Z,60.91
2022-11-02T07:26:51.118Z,63.65
2022-11-02T07:27:51.117Z,62.20
2022-11-02T07:28:55.023Z,63.16
2022-11-02T07:29:53.093Z,61.71
2022-11-02T07:30:51.102Z,63.49
2022-11-02T07:31:51.096Z,64.78
2022-11-02T07:32:51.099Z,63.65
2022-11-02T07:33:51.070Z,63.97
2022-11-02T07:34:51.071Z,61.55
2022-11-02T07:35:51.592Z,65.58
2022-11-02T07:36:51.668Z,61.07
2022-11-02T07:37:51.666Z,62.68
2022-11-02T07:38:51.026Z,62.20
2022-11-02T07:39:51.025Z,62.36
2022-11-02T07:40:51.014Z,65.10
2022-11-02T07:41:52.164Z,62.68
2022-11-02T07:42:51.986Z,61.87
2022-11-02T07:45:58.940Z,61.55
2022-11-02T07:46:58.939Z,61.07
2022-11-02T07:48:00.078Z,60.59
2022-11-02T07:49:00.030Z,62.36
2022-11-02T07:50:00.182Z,63.00
2022-11-02T07:51:00.006Z,60.59
2022-11-02T07:51:59.991Z,65.26
2022-11-02T07:52:59.988Z,64.29
2022-11-02T07:53:59.976Z,61.71
2022-11-02T07:57:06.312Z,61.23
2022-11-02T07:58:06.305Z,62.68
2022-11-02T07:59:07.397Z,62.20
2022-11-02T08:00:07.412Z,62.68
2022-11-02T08:01:07.376Z,63.16
2022-11-02T08:02:07.372Z,64.13
2022-11-02T08:03:07.738Z,63.33
2022-11-02T08:04:08.200Z,58.17
2022-11-02T08:05:07.350Z,62.52
2022-11-02T08:06:07.714Z,60.42
2022-11-02T08:07:07.339Z,61.23
2022-11-02T08:08:07.775Z,62.04
2022-11-02T08:09:07.316Z,58.65
2022-11-02T08:10:07.305Z,60.26
2022-11-02T08:11:07.296Z,63.81
2022-11-02T08:12:07.304Z,62.36
2022-11-02T08:13:07.309Z,62.68
2022-11-02T08:14:07.283Z,61.39
2022-11-02T08:15:07.792Z,60.59
2022-11-02T08:16:08.291Z,59.94
2022-11-02T08:17:07.260Z,61.87
2022-11-02T08:18:09.333Z,59.94
2022-11-02T08:19:07.238Z,62.84
2022-11-02T08:20:07.240Z,63.16
2022-11-02T08:21:07.242Z,63.16
2022-11-02T08:22:07.236Z,63.81
2022-11-02T08:23:07.201Z,61.55
2022-11-02T08:24:08.203Z,61.23
2022-11-02T08:25:07.240Z,62.20
2022-11-02T08:26:08.705Z,60.42
2022-11-02T08:27:07.188Z,62.36
2022-11-02T08:28:07.517Z,60.59
2022-11-02T08:29:07.165Z,63.65
2022-11-02T08:30:07.197Z,62.04
2022-11-02T08:31:07.144Z,64.45
2022-11-02T08:34:13.417Z,60.59
2022-11-02T08:35:14.502Z,62.52
2022-11-02T08:36:14.523Z,60.10
2022-11-02T08:37:14.499Z,62.20
2022-11-02T08:38:14.489Z,60.75
2022-11-02T08:39:18.702Z,62.20
2022-11-02T08:40:15.462Z,60.26
2022-11-02T08:41:14.467Z,63.49
2022-11-02T08:42:14.444Z,62.84
2022-11-02T08:43:14.435Z,60.91
2022-11-02T08:44:14.442Z,61.55
2022-11-02T08:45:14.450Z,61.23
2022-11-02T08:46:16.816Z,60.10
2022-11-02T08:47:15.413Z,60.91
2022-11-02T08:48:14.416Z,59.78
2022-11-02T08:49:14.396Z,61.55
2022-11-02T08:50:14.388Z,63.00
2022-11-02T08:51:14.393Z,60.10
2022-11-02T08:52:14.387Z,63.00
2022-11-02T08:53:14.363Z,62.04
2022-11-02T08:54:14.364Z,61.71
2022-11-02T08:55:14.866Z,62.68
2022-11-02T08:56:14.454Z,61.87
2022-11-02T08:57:14.371Z,60.26
2022-11-02T08:58:15.276Z,61.55
2022-11-02T08:59:14.313Z,59.62
2022-11-02T09:00:14.314Z,60.10
2022-11-02T09:01:14.327Z,62.36
2022-11-02T09:02:14.457Z,63.00
2022-11-02T09:03:14.301Z,63.00
2022-11-02T09:04:14.284Z,61.55
2022-11-02T09:05:14.290Z,60.75
2022-11-02T09:06:14.275Z,59.62
2022-11-02T09:07:14.260Z,63.33
2022-11-02T09:08:14.329Z,61.23
2022-11-02T09:09:14.237Z,60.91
2022-11-02T09:10:14.239Z,61.23
2022-11-02T09:11:14.223Z,61.23
2022-11-02T09:12:14.206Z,60.75
2022-11-02T09:13:14.879Z,60.10
2022-11-02T09:14:14.238Z,59.94
2022-11-02T09:15:14.784Z,60.75
2022-11-02T09:16:14.198Z,61.39
2022-11-02T09:17:14.180Z,60.75
2022-11-02T09:18:14.165Z,61.55
2022-11-02T09:19:14.148Z,63.16
2022-11-02T09:20:14.159Z,63.49
2022-11-02T09:21:14.138Z,61.55
2022-11-02T09:22:14.142Z,62.36
2022-11-02T09:23:14.130Z,60.75
2022-11-02T09:24:14.112Z,60.59
2022-11-02T09:25:14.111Z,61.23
2022-11-02T09:26:14.114Z,60.10
2022-11-02T09:27:14.093Z,60.10
2022-11-02T09:28:14.233Z,59.46
2022-11-02T09:29:14.143Z,61.07
2022-11-02T09:30:14.070Z,61.71
2022-11-02T09:31:15.076Z,58.81
2022-11-02T09:32:14.175Z,57.04
2022-11-02T09:33:14.072Z,60.59
2022-11-02T09:34:14.048Z,59.30
2022-11-02T09:35:14.031Z,61.23
2022-11-02T09:36:14.028Z,60.42
2022-11-02T09:37:14.036Z,59.94
2022-11-02T09:38:14.013Z,58.33
2022-11-02T09:39:14.869Z,59.62
2022-11-02T09:40:14.012Z,59.78
2022-11-02T09:41:13.987Z,60.42
2022-11-02T09:42:14.001Z,61.71
2022-11-02T09:43:13.974Z,61.87
2022-11-02T09:44:14.794Z,61.55
2022-11-02T09:45:13.981Z,59.94
2022-11-02T09:46:14.914Z,60.26
2022-11-02T09:48:18.840Z,60.10
2022-11-02T09:49:15.929Z,63.16
2022-11-02T09:50:13.983Z,61.07
2022-11-02T09:51:13.970Z,62.68
2022-11-02T09:52:13.947Z,59.94
2022-11-02T09:53:13.885Z,60.59
2022-11-02T09:54:17.449Z,60.42
2022-11-02T09:55:13.866Z,59.78
2022-11-02T09:56:13.886Z,61.71
2022-11-02T09:57:13.860Z,60.59
2022-11-02T09:58:13.873Z,59.14
2022-11-02T09:59:14.373Z,59.62
2022-11-02T10:00:13.888Z,60.59
2022-11-02T10:01:13.876Z,60.10
2022-11-02T10:02:13.831Z,60.75
2022-11-02T10:03:13.806Z,59.78
2022-11-02T10:04:13.815Z,58.65
2022-11-02T10:05:13.813Z,61.71
2022-11-02T10:06:13.783Z,63.65
2022-11-02T10:07:13.785Z,60.75
2022-11-02T10:08:13.774Z,60.91
2022-11-02T10:09:13.777Z,60.26
2022-11-02T10:10:13.933Z,60.42
2022-11-02T10:11:13.749Z,60.75
2022-11-02T10:12:13.737Z,60.26
2022-11-02T10:13:13.725Z,61.55
2022-11-02T10:14:13.720Z,61.87
2022-11-02T10:15:13.736Z,62.68
2022-11-02T10:16:13.705Z,56.24
2022-11-02T10:17:13.721Z,61.23
2022-11-02T10:18:13.692Z,60.75
2022-11-02T10:19:13.714Z,65.58
2022-11-02T10:20:13.717Z,60.91
2022-11-02T10:21:13.671Z,61.87
2022-11-02T10:22:13.663Z,63.81
2022-11-02T10:23:14.644Z,61.55
2022-11-02T10:24:13.640Z,59.62
2022-11-02T10:25:13.655Z,61.71
2022-11-02T10:26:13.623Z,61.23
2022-11-02T10:27:14.344Z,61.55
2022-11-02T10:28:14.670Z,63.81
2022-11-02T10:29:13.608Z,59.94
2022-11-02T10:30:13.609Z,62.20
2022-11-02T10:31:15.691Z,59.62
2022-11-02T10:32:14.580Z,60.59
2022-11-02T10:33:14.385Z,61.55
2022-11-02T10:34:14.348Z,58.97
2022-11-02T10:36:18.516Z,62.84
2022-11-02T10:37:14.627Z,63.81
2022-11-02T10:38:15.222Z,62.20
2022-11-02T10:39:14.523Z,61.07
2022-11-02T10:40:14.362Z,61.55
2022-11-02T10:41:13.510Z,61.39
2022-11-02T10:42:13.553Z,61.23
2022-11-02T10:43:13.523Z,59.94
2022-11-02T10:44:14.855Z,60.26
2022-11-02T10:45:13.481Z,61.87
2022-11-02T10:46:13.472Z,59.78
2022-11-02T10:47:13.464Z,61.07
2022-11-02T10:48:13.918Z,60.42
2022-11-02T10:49:13.432Z,59.14
2022-11-02T10:50:14.438Z,60.42
2022-11-02T10:51:13.431Z,60.91
2022-11-02T10:52:13.467Z,59.46
2022-11-02T10:53:39.393Z,60.10
2022-11-02T10:54:17.828Z,60.75
2022-11-02T10:55:14.391Z,61.55
2022-11-02T10:56:13.390Z,60.59
2022-11-02T10:57:13.391Z,59.78
2022-11-02T10:58:13.364Z,59.46
2022-11-02T10:59:13.358Z,60.10
2022-11-02T11:00:13.356Z,62.68
2022-11-02T11:01:13.435Z,60.91
2022-11-02T11:02:13.353Z,61.71
2022-11-02T11:03:13.333Z,63.65
2022-11-02T11:04:13.320Z,61.07
2022-11-02T11:05:13.309Z,61.07
2022-11-02T11:06:13.330Z,60.91
2022-11-02T11:07:13.309Z,60.26
2022-11-02T11:08:13.295Z,61.87
2022-11-02T11:09:13.279Z,58.49
2022-11-02T11:10:13.277Z,60.59
2022-11-02T11:11:13.278Z,60.75
2022-11-02T11:12:13.259Z,58.01
2022-11-02T11:16:18.486Z,63.33
2022-11-02T11:20:15.189Z,63.97
2022-11-02T11:21:13.184Z,61.23
2022-11-02T11:22:13.175Z,60.75
2022-11-02T11:23:13.181Z,60.42
2022-11-02T11:24:13.180Z,61.71
2022-11-02T11:25:13.163Z,58.17
2022-11-02T11:26:13.196Z,62.04
2022-11-02T11:27:13.138Z,63.65
2022-11-02T11:28:13.134Z,63.16
2022-11-02T11:29:13.127Z,61.07
2022-11-02T11:30:13.119Z,62.52
2022-11-02T11:31:13.105Z,63.16
2022-11-02T11:32:13.097Z,60.59
2022-11-02T11:33:13.131Z,58.81
2022-11-02T11:34:13.081Z,60.91
2022-11-02T11:35:13.111Z,61.07
2022-11-02T11:36:13.115Z,62.20
2022-11-02T11:37:13.848Z,64.78
2022-11-02T11:38:13.077Z,60.59
2022-11-02T11:39:13.067Z,62.20
2022-11-02T11:40:14.050Z,58.33
2022-11-02T11:41:13.034Z,59.14
2022-11-02T11:42:13.015Z,59.94
2022-11-02T11:43:13.010Z,59.30
2022-11-02T11:44:12.999Z,61.07
2022-11-02T11:45:12.998Z,61.39
2022-11-02T11:46:13.006Z,58.17
2022-11-02T11:47:12.971Z,56.72
2022-11-02T11:48:12.974Z,59.62
2022-11-02T11:49:12.957Z,61.07
2022-11-02T11:50:12.963Z,60.91
2022-11-02T11:51:13.961Z,61.71
2022-11-02T11:52:12.934Z,60.42
2022-11-02T11:53:12.973Z,60.91
2022-11-02T11:54:12.952Z,62.68
2022-11-02T11:55:12.939Z,61.39
2022-11-02T11:56:12.913Z,62.04
2022-11-02T11:57:12.904Z,62.52
2022-11-02T11:58:12.919Z,62.20
2022-11-02T11:59:12.892Z,62.36
2022-11-02T12:00:13.036Z,62.20
2022-11-02T12:01:12.919Z,64.61
2022-11-02T12:02:12.954Z,62.36
2022-11-02T12:03:12.934Z,61.23
2022-11-02T12:04:12.862Z,62.84
2022-11-02T12:05:12.850Z,62.84
2022-11-02T12:06:13.412Z,61.39
2022-11-02T12:07:12.839Z,60.42
2022-11-02T12:08:12.863Z,58.65
2022-11-02T12:09:12.821Z,59.46
2022-11-02T12:10:12.807Z,59.78
2022-11-02T12:11:18.576Z,61.71
2022-11-02T12:12:15.727Z,60.75
2022-11-02T12:13:17.774Z,60.42
2022-11-02T12:14:12.803Z,61.39
2022-11-02T12:15:12.774Z,61.55
2022-11-02T12:18:19.409Z,61.55
2022-11-02T12:19:20.340Z,61.71
2022-11-02T12:20:20.313Z,63.97
2022-11-02T12:21:20.901Z,65.10
2022-11-02T12:22:20.312Z,63.49
2022-11-02T12:23:20.298Z,63.65
2022-11-02T12:24:20.290Z,64.78
2022-11-02T12:25:20.296Z,60.75
2022-11-02T12:26:20.270Z,61.07
2022-11-02T12:27:21.290Z,60.42
2022-11-02T12:28:20.259Z,61.23
2022-11-02T12:29:21.263Z,60.42
2022-11-02T12:30:20.905Z,60.91
2022-11-02T12:31:20.902Z,61.55
2022-11-02T12:32:20.226Z,59.94
2022-11-02T12:33:20.221Z,58.49
2022-11-02T12:34:21.905Z,55.91
2022-11-02T12:35:28.985Z,59.94
2022-11-02T12:36:22.184Z,58.81
2022-11-02T12:37:39.096Z,57.85
2022-11-02T12:38:22.185Z,60.10
2022-11-02T12:39:20.190Z,61.07
2022-11-02T12:40:20.180Z,61.87
2022-11-02T12:41:20.158Z,60.75
2022-11-02T12:44:27.838Z,58.33
2022-11-02T12:45:27.008Z,59.14
2022-11-02T12:46:26.957Z,60.91
2022-11-02T12:47:28.077Z,58.65
2022-11-02T12:48:28.924Z,61.07
2022-11-02T12:49:28.040Z,61.71
2022-11-02T12:50:28.916Z,61.71
2022-11-02T12:51:29.026Z,61.07
2022-11-02T12:52:28.916Z,61.39
2022-11-02T12:53:28.009Z,57.20
2022-11-02T12:54:27.989Z,61.87
2022-11-02T12:55:27.977Z,61.39
2022-11-02T12:56:27.972Z,61.23
2022-11-02T12:57:27.976Z,63.00
2022-11-02T12:58:27.972Z,60.42
2022-11-02T12:59:29.942Z,61.39
2022-11-02T13:00:27.936Z,62.04
2022-11-02T13:01:28.126Z,61.39
2022-11-02T13:02:29.439Z,61.55
2022-11-02T13:03:27.923Z,60.10
2022-11-02T13:04:30.176Z,62.04
2022-11-02T13:05:29.012Z,57.20
2022-11-02T13:06:27.921Z,61.71
2022-11-02T13:07:27.887Z,63.00
2022-11-02T13:08:27.896Z,61.55
2022-11-02T13:09:28.851Z,60.75
2022-11-02T13:10:27.854Z,61.07
2022-11-02T13:11:27.857Z,60.75
2022-11-02T13:12:27.849Z,59.30
2022-11-02T13:13:27.847Z,61.23
2022-11-02T13:14:27.824Z,58.17
2022-11-02T13:15:27.819Z,59.94
2022-11-02T13:16:27.823Z,58.17
2022-11-02T13:17:27.813Z,61.23
2022-11-02T13:18:27.796Z,60.26
2022-11-02T13:19:27.800Z,62.04
2022-11-02T13:20:27.778Z,64.78
2022-11-02T13:21:27.865Z,63.33